Time;durP1;ratioP1;P1;durP2;ratioP2;P2;SDS_P1;SDS_P2;PMS_P1;PMS_P2;Temp;Humidity;BMP_temperature;BMP_pressure;BME280_temperature;BME280_humidity;BME280_pressure;Samples;Min_cycle;Max_cycle;Signal;HPM_P1;HPM_P2
2022/06/09 00:00:42;;;;;;;13.70;12.30;;;;;;;13.81;100.00;100503.59;2030210;29;33709;-70
2022/06/09 00:01:52;;;;;;;13.63;11.93;;;;;;;13.84;100.00;100503.47;2030071;29;20856;-69
2022/06/09 00:02:58;;;;;;;;;;;;;;;13.85;100.00;100501.66;2029726;29;38514;-71
2022/06/09 00:04:16;;;;;;;15.38;12.35;;;;;;;13.86;100.00;100506.09;2030966;29;42189;-70
2022/06/09 00:05:21;;;;;;;15.25;12.82;;;;;;;13.86;100.00;100501.59;2045364;28;40689;-70
2022/06/09 00:06:30;;;;;;;13.43;12.02;;;;;;;13.87;100.00;100503.34;2043599;28;35660;-70
2022/06/09 00:07:34;;;;;;;14.45;12.95;;;;;;;13.87;100.00;100503.34;2038010;29;36983;-70
2022/06/09 00:08:41;;;;;;;15.30;13.68;;;;;;;13.89;100.00;100501.47;2037820;29;39746;-71
2022/06/09 00:10:01;;;;;;;14.80;13.27;;;;;;;13.90;100.00;100505.00;2038837;29;20178;-70
2022/06/09 00:11:07;;;;;;;14.07;12.43;;;;;;;13.91;100.00;100498.72;2045151;28;41912;-70
2022/06/09 00:12:09;;;;;;;16.23;13.10;;;;;;;13.92;100.00;100505.81;2035393;28;38899;-70
2022/06/09 00:13:11;;;;;;;14.77;12.68;;;;;;;13.92;100.00;100509.38;2029391;28;37030;-70
2022/06/09 00:14:14;;;;;;;17.13;13.98;;;;;;;13.95;100.00;100513.75;2045486;28;34100;-70
2022/06/09 00:15:16;;;;;;;15.80;14.07;;;;;;;13.96;100.00;100512.81;2044673;28;36316;-70
2022/06/09 00:16:18;;;;;;;16.13;14.43;;;;;;;13.97;100.00;100511.88;2041126;29;35703;-70
2022/06/09 00:17:20;;;;;;;16.95;13.90;;;;;;;13.96;100.00;100512.81;2037127;29;37688;-70
2022/06/09 00:18:25;;;;;;;18.20;13.35;;;;;;;13.99;100.00;100522.59;2038208;29;37615;-70
2022/06/09 00:19:27;;;;;;;15.73;13.75;;;;;;;13.98;100.00;100515.44;2037704;29;39588;-70
2022/06/09 00:20:29;;;;;;;18.77;14.05;;;;;;;13.99;100.00;100509.13;2038135;29;42636;-70
2022/06/09 00:21:34;;;;;;;18.05;14.73;;;;;;;14.00;100.00;100517.13;2037427;28;39180;-70
2022/06/09 00:22:39;;;;;;;17.98;14.68;;;;;;;14.03;100.00;100518.81;2037128;28;45396;-70
2022/06/09 00:23:40;;;;;;;17.60;14.68;;;;;;;14.01;100.00;100518.88;2036842;29;39421;-70
2022/06/09 00:24:42;;;;;;;17.10;14.50;;;;;;;14.01;100.00;100516.19;2037925;29;43127;-70
2022/06/09 00:25:45;;;;;;;16.52;14.63;;;;;;;14.02;100.00;100517.94;2037270;29;44194;-70
2022/06/09 00:26:48;;;;;;;16.92;14.88;;;;;;;14.04;100.00;100515.19;2029604;29;35585;-71
2022/06/09 00:27:49;;;;;;;17.15;13.93;;;;;;;14.03;100.00;100518.81;2030130;29;20047;-70
2022/06/09 00:28:51;;;;;;;17.02;14.30;;;;;;;14.03;100.00;100514.31;2038534;28;20953;-70
2022/06/09 00:29:53;;;;;;;15.95;14.25;;;;;;;14.04;100.00;100509.81;2037719;29;39372;-70
2022/06/09 00:30:57;;;;;;;17.27;14.20;;;;;;;14.04;100.00;100512.50;2037179;29;38350;-70
2022/06/09 00:32:01;;;;;;;17.45;14.15;;;;;;;14.04;100.00;100510.66;2036856;29;36205;-70
2022/06/09 00:33:03;;;;;;;16.10;13.75;;;;;;;14.04;100.00;100516.06;2037658;29;45124;-70
2022/06/09 00:34:05;;;;;;;18.73;14.88;;;;;;;14.04;100.00;100510.66;2037626;29;29496;-71
2022/06/09 00:35:12;;;;;;;18.08;13.45;;;;;;;14.04;100.00;100518.75;2029251;29;39409;-70
2022/06/09 00:36:16;;;;;;;15.20;12.57;;;;;;;14.05;100.00;100515.13;2022036;29;44199;-70
2022/06/09 00:37:18;;;;;;;18.90;13.35;;;;;;;14.04;100.00;100513.34;2030630;29;36784;-70
2022/06/09 00:38:20;;;;;;;20.55;14.70;;;;;;;14.05;100.00;100517.81;2038354;29;20041;-70
2022/06/09 00:39:22;;;;;;;20.17;14.48;;;;;;;14.05;100.00;100517.81;2037580;29;34191;-70
2022/06/09 00:40:24;;;;;;;20.20;14.18;;;;;;;14.07;100.00;100515.06;2036990;29;38793;-70
2022/06/09 00:41:28;;;;;;;19.92;14.65;;;;;;;14.07;100.00;100515.06;2037506;29;40328;-70
2022/06/09 00:42:31;;;;;;;20.83;13.57;;;;;;;14.07;100.00;100517.75;2036973;29;37698;-70
2022/06/09 00:43:33;;;;;;;18.90;14.18;;;;;;;14.06;100.00;100524.94;2045819;28;20897;-70
2022/06/09 00:44:38;;;;;;;19.75;14.38;;;;;;;14.08;100.00;100517.66;2044351;28;42460;-70
2022/06/09 00:45:52;;;;;;;19.23;14.32;;;;;;;14.08;100.00;100523.03;2037082;29;39398;-70
2022/06/09 00:47:03;;;;;;;21.90;14.57;;;;;;;14.09;100.00;100518.56;2037702;28;39161;-70
2022/06/09 00:48:25;;;;;;;22.08;15.05;;;;;;;14.09;100.00;100529.31;2037468;29;37297;-70
2022/06/09 00:49:45;;;;;;;22.48;15.27;;;;;;;14.10;100.00;100521.19;2038797;29;20162;-70
2022/06/09 00:50:55;;;;;;;25.08;15.00;;;;;;;14.10;100.00;100531.06;2037045;29;39374;-69
2022/06/09 00:52:01;;;;;;;19.58;14.10;;;;;;;14.09;100.00;100522.09;2048105;28;20261;-70
2022/06/09 00:53:12;;;;;;;21.17;13.57;;;;;;;14.11;100.00;100522.03;2043227;28;46716;-69
2022/06/09 00:54:31;;;;;;;19.02;13.38;;;;;;;14.11;100.00;100524.75;2036801;29;38138;-69
2022/06/09 00:55:34;;;;;;;22.60;13.93;;;;;;;14.11;100.00;100522.91;2028459;29;45147;-69
2022/06/09 00:56:48;;;;;;;24.70;15.15;;;;;;;14.11;100.00;100524.75;2038411;28;37601;-69
2022/06/09 00:58:02;;;;;;;21.73;14.80;;;;;;;14.11;100.00;100530.97;2044250;28;20940;-69
2022/06/09 00:59:04;;;;;;;24.70;15.40;;;;;;;14.12;100.00;100535.44;2044646;28;41070;-69
2022/06/09 01:00:15;;;;;;;24.77;15.60;;;;;;;14.10;100.00;100534.63;2045893;28;20036;-69
2022/06/09 01:01:18;;;;;;;28.65;15.60;;;;;;;14.10;100.00;100537.34;2037240;29;39147;-68
2022/06/09 01:02:21;;;;;;;23.88;16.27;;;;;;;14.11;100.00;100533.69;2036695;29;40972;-69
2022/06/09 01:03:42;;;;;;;21.85;15.20;;;;;;;14.11;100.00;100532.81;2037459;29;39315;-70
2022/06/09 01:04:46;;;;;;;25.15;16.77;;;;;;;14.10;100.00;100531.94;2037177;29;44185;-69
2022/06/09 01:05:51;;;;;;;31.33;16.13;;;;;;;14.11;100.00;100533.69;2045332;28;35429;-69
2022/06/09 01:07:03;;;;;;;29.27;16.90;;;;;;;14.11;100.00;100533.69;2043852;28;39438;-69
2022/06/09 01:08:05;;;;;;;31.67;18.13;;;;;;;14.12;100.00;100527.38;2037285;29;36561;-69
2022/06/09 01:09:18;;;;;;;26.52;18.08;;;;;;;14.11;100.00;100532.81;2036915;29;36796;-69
2022/06/09 01:10:27;;;;;;;28.13;18.05;;;;;;;14.11;100.00;100522.91;2038395;29;20166;-69
2022/06/09 01:11:29;;;;;;;26.38;18.10;;;;;;;14.11;100.00;100528.28;2037455;29;37215;-70
2022/06/09 01:12:40;;;;;;;25.23;16.40;;;;;;;14.12;100.00;100530.06;2037437;28;43543;-69
2022/06/09 01:13:42;;;;;;;32.33;19.15;;;;;;;14.12;100.00;100530.06;2037696;29;41524;-70
2022/06/09 01:14:44;;;;;;;30.30;18.80;;;;;;;14.12;100.00;100530.06;2037293;29;45654;-69
2022/06/09 01:16:08;;;;;;;30.83;18.63;;;;;;;14.12;100.00;100527.38;2036214;29;43012;-69
2022/06/09 01:17:22;;;;;;;31.50;19.00;;;;;;;14.12;100.00;100530.06;2045808;28;35731;-68
2022/06/09 01:19:10;;;;;;;28.27;17.90;;;;;;;14.11;100.00;100525.59;2042486;28;44164;-69
2022/06/09 01:20:43;;;;;;;29.65;15.23;;;;;;;14.12;100.00;100530.06;2046087;28;44953;-69
2022/06/09 01:22:27;;;;;;;25.42;16.50;;;;;;;14.11;100.00;100530.97;2038729;29;38936;-69
2022/06/09 01:23:43;;;;;;;27.08;16.48;;;;;;;14.12;100.00;100540.81;2038682;29;42521;-69
2022/06/09 01:25:02;;;;;;;27.38;16.95;;;;;;;14.13;100.00;100539.88;2046351;28;41522;-70
2022/06/09 01:26:30;;;;;;;26.25;17.30;;;;;;;14.15;100.00;100542.50;2042169;28;40753;-70
2022/06/09 01:28:29;;;;;;;30.00;18.13;;;;;;;14.14;100.00;100538.06;2038916;29;44946;-69
2022/06/09 01:29:41;;;;;;;27.50;17.40;;;;;;;14.14;100.00;100540.75;2014412;29;27398;-70
2022/06/09 01:30:58;;;;;;;31.45;19.30;;;;;;;14.14;100.00;100538.06;2006746;29;43231;-70
2022/06/09 01:32:17;;;;;;;38.28;19.70;;;;;;;14.15;100.00;100544.31;2009682;29;32281;-69
2022/06/09 01:33:55;;;;;;;38.42;19.50;;;;;;;14.13;100.00;100544.38;2006526;29;45340;-70
2022/06/09 01:35:17;;;;;;;34.33;19.27;;;;;;;14.15;100.00;100552.41;2009277;29;41470;-70
2022/06/09 01:36:32;;;;;;;36.22;20.88;;;;;;;14.12;100.00;100551.59;2038517;29;42120;-70
2022/06/09 01:37:42;;;;;;;31.58;20.25;;;;;;;14.12;100.00;100553.38;2038148;29;45702;-70
2022/06/09 01:38:49;;;;;;;35.20;21.45;;;;;;;14.11;100.00;100552.53;2045938;28;40645;-70
2022/06/09 01:40:02;;;;;;;38.80;22.20;;;;;;;14.11;100.00;100551.66;2044828;28;21911;-70
2022/06/09 01:41:07;;;;;;;39.38;21.10;;;;;;;14.12;100.00;100556.97;2038211;29;45316;-70
2022/06/09 01:42:27;;;;;;;36.83;22.42;;;;;;;14.12;100.00;100556.09;2038700;29;33398;-69
2022/06/09 01:43:29;;;;;;;44.22;23.25;;;;;;;14.12;100.00;100548.91;2038136;29;45622;-69
2022/06/09 01:44:31;;;;;;;46.85;23.42;;;;;;;14.12;100.00;100553.38;2038055;29;39727;-69
2022/06/09 01:45:48;;;;;;;39.85;23.30;;;;;;;14.12;100.00;100551.59;2038530;29;44358;-70
2022/06/09 01:46:51;;;;;;;44.45;23.45;;;;;;;14.13;100.00;100557.84;2038029;29;44765;-69
2022/06/09 01:48:15;;;;;;;40.35;22.45;;;;;;;14.11;100.00;100555.22;2039336;29;22190;-70
2022/06/09 01:49:25;;;;;;;42.88;22.42;;;;;;;14.09;100.00;100545.47;2038707;29;44359;-70
2022/06/09 01:50:53;;;;;;;44.22;24.70;;;;;;;14.08;100.00;100547.25;2038959;29;22521;-69
2022/06/09 01:51:57;;;;;;;;;;;;;;;14.05;100.00;100549.22;2047474;28;20114;-70
2022/06/09 01:53:06;;;;;;;41.53;23.30;;;;;;;14.03;100.00;100546.63;2044775;28;27439;-70
2022/06/09 01:54:15;;;;;;;37.95;23.02;;;;;;;14.00;100.00;100556.63;2039861;29;39991;-70
2022/06/09 01:55:22;;;;;;;38.58;22.30;;;;;;;13.97;100.00;100549.56;2038117;29;41989;-69
2022/06/09 01:56:45;;;;;;;44.92;25.80;;;;;;;13.96;100.00;100553.19;2038039;29;45312;-70
2022/06/09 01:57:54;;;;;;;44.88;25.27;;;;;;;13.95;100.00;100548.75;2046298;28;38159;-70
2022/06/09 01:59:07;;;;;;;40.83;24.25;;;;;;;13.92;100.00;100557.81;2036451;29;20091;-70
2022/06/09 02:00:18;;;;;;;42.95;25.05;;;;;;;13.91;100.00;100549.84;2024864;29;38151;-70
2022/06/09 02:01:26;;;;;;;47.45;26.00;;;;;;;13.92;100.00;100556.94;2039841;28;44329;-70
2022/06/09 02:02:37;;;;;;;44.80;26.15;;;;;;;13.90;100.00;100554.31;2044920;28;39989;-69
2022/06/09 02:03:45;;;;;;;47.97;27.58;;;;;;;13.90;100.00;100550.75;2045679;28;41963;-70
2022/06/09 02:04:57;;;;;;;49.33;26.50;;;;;;;13.90;100.00;100554.31;2044054;28;38385;-70
2022/06/09 02:06:03;;;;;;;49.22;24.25;;;;;;;13.89;100.00;100557.97;2046172;28;38163;-70
2022/06/09 02:07:08;;;;;;;45.50;25.92;;;;;;;13.90;100.00;100558.84;2043999;28;43365;-69
2022/06/09 02:08:15;;;;;;;43.83;24.63;;;;;;;13.91;100.00;100558.78;2046246;28;27928;-70
2022/06/09 02:09:17;;;;;;;52.97;26.70;;;;;;;13.90;100.00;100561.53;2036919;29;36589;-70
2022/06/09 02:10:33;;;;;;;52.30;27.85;;;;;;;13.91;100.00;100563.28;2030266;29;37763;-71
2022/06/09 02:11:56;;;;;;;50.75;25.95;;;;;;;13.91;100.00;100564.16;2038212;29;40869;-70
2022/06/09 02:13:07;;;;;;;51.05;26.65;;;;;;;13.92;100.00;100563.19;2031856;29;20029;-71
2022/06/09 02:14:09;;;;;;;47.35;26.08;;;;;;;13.93;100.00;100561.41;2029939;28;41001;-71
2022/06/09 02:15:19;;;;;;;52.10;25.90;;;;;;;13.92;100.00;100565.91;2030364;28;44992;-71
2022/06/09 02:16:22;;;;;;;52.40;26.63;;;;;;;13.94;100.00;100573.91;2029714;29;36372;-71
2022/06/09 02:17:24;;;;;;;55.17;27.92;;;;;;;13.93;100.00;100572.19;2030094;29;41773;-71
2022/06/09 02:18:38;;;;;;;52.80;27.27;;;;;;;13.93;100.00;100573.03;2030753;29;22964;-70
2022/06/09 02:19:41;;;;;;;52.55;26.73;;;;;;;13.94;100.00;100571.22;2030445;29;38268;-70
2022/06/09 02:20:52;;;;;;;42.88;24.90;;;;;;;13.94;100.00;100580.19;2030113;29;42251;-71
2022/06/09 02:21:54;;;;;;;53.65;26.70;;;;;;;13.94;100.00;100571.22;2029872;29;37945;-70
2022/06/09 02:22:55;;;;;;;41.42;25.88;;;;;;;13.96;100.00;100577.41;2030296;29;43164;-70
2022/06/09 02:23:57;;;;;;;47.42;24.95;;;;;;;13.97;100.00;100570.22;2031307;29;38932;-70
2022/06/09 02:25:01;;;;;;;55.22;26.60;;;;;;;13.97;100.00;100568.41;2032074;29;39669;-70
2022/06/09 02:26:04;;;;;;;45.17;25.17;;;;;;;13.97;100.00;100572.91;2031095;29;34861;-70
2022/06/09 02:27:06;;;;;;;56.83;27.95;;;;;;;13.97;100.00;100572.91;2030121;28;46759;-70
2022/06/09 02:28:08;;;;;;;52.35;26.33;;;;;;;13.94;100.00;100576.59;2030462;29;37844;-70
2022/06/09 02:29:10;;;;;;;50.30;26.40;;;;;;;13.95;100.00;100572.97;2030574;29;40353;-70
2022/06/09 02:30:12;;;;;;;44.80;25.08;;;;;;;13.94;100.00;100580.19;2030297;29;37432;-70
2022/06/09 02:31:33;;;;;;;49.13;25.83;;;;;;;13.94;100.00;100584.69;2030814;29;40252;-69
2022/06/09 02:32:40;;;;;;;44.05;25.08;;;;;;;13.94;100.00;100579.28;2029997;29;45745;-70
2022/06/09 02:33:41;;;;;;;53.42;26.27;;;;;;;13.92;100.00;100583.88;2030783;28;40992;-70
2022/06/09 02:34:43;;;;;;;49.63;24.83;;;;;;;13.93;100.00;100591.00;2030312;29;38600;-70
2022/06/09 02:35:45;;;;;;;46.60;24.90;;;;;;;13.92;100.00;100587.41;2030214;29;41937;-70
2022/06/09 02:36:47;;;;;;;39.20;22.45;;;;;;;13.92;100.00;100591.94;2029893;29;44414;-71
2022/06/09 02:37:49;;;;;;;51.38;24.65;;;;;;;13.92;100.00;100589.25;2030832;28;46182;-69
2022/06/09 02:38:50;;;;;;;47.58;25.15;;;;;;;13.91;100.00;100590.22;2029895;29;44753;-69
2022/06/09 02:39:54;;;;;;;50.08;24.13;;;;;;;13.91;100.00;100590.22;2031456;29;20107;-69
2022/06/09 02:40:56;;;;;;;48.00;25.00;;;;;;;13.91;100.00;100596.47;2029450;29;45746;-70
2022/06/09 02:42:00;;;;;;;43.42;22.70;;;;;;;13.92;100.00;100600.00;2031084;29;42011;-70
2022/06/09 02:43:02;;;;;;;46.97;26.17;;;;;;;13.92;100.00;100591.94;2037915;29;38973;-70
2022/06/09 02:44:05;;;;;;;44.17;24.95;;;;;;;13.92;100.00;100600.88;2039221;29;20036;-69
2022/06/09 02:45:08;;;;;;;46.80;25.10;;;;;;;13.92;100.00;100598.19;2038703;29;20051;-70
2022/06/09 02:46:10;;;;;;;47.38;25.27;;;;;;;13.92;100.00;100600.88;2038165;29;41690;-69
2022/06/09 02:47:12;;;;;;;46.42;24.77;;;;;;;13.93;100.00;100605.34;2037848;28;39401;-69
2022/06/09 02:48:14;;;;;;;51.58;25.00;;;;;;;13.93;100.00;100605.34;2038173;29;41183;-70
2022/06/09 02:49:17;;;;;;;44.42;23.42;;;;;;;13.94;100.00;100604.41;2038004;29;30662;-70
2022/06/09 02:50:22;;;;;;;49.80;25.00;;;;;;;13.93;100.00;100605.34;2039108;28;20118;-70
2022/06/09 02:51:30;;;;;;;51.33;24.13;;;;;;;13.94;100.00;100606.22;2037826;28;44006;-70
2022/06/09 02:52:32;;;;;;;48.38;24.58;;;;;;;13.97;100.00;100605.22;2037980;29;42035;-70
2022/06/09 02:53:36;;;;;;;50.38;25.13;;;;;;;13.96;100.00;100592.69;2037727;29;37654;-70
2022/06/09 02:54:37;;;;;;;49.35;23.85;;;;;;;13.97;100.00;100608.78;2038575;29;39473;-70
2022/06/09 02:55:39;;;;;;;50.47;24.35;;;;;;;13.97;100.00;100605.22;2038039;29;44695;-70
2022/06/09 02:56:42;;;;;;;50.50;24.00;;;;;;;13.97;100.00;100606.09;2039307;29;41389;-70
2022/06/09 02:57:44;;;;;;;46.08;24.40;;;;;;;13.97;100.00;100608.78;2037652;29;46812;-70
2022/06/09 02:58:47;;;;;;;43.95;24.50;;;;;;;13.98;100.00;100613.22;2039108;29;20178;-70
2022/06/09 02:59:51;;;;;;;41.45;22.35;;;;;;;13.95;100.00;100602.59;2038533;29;37880;-70
2022/06/09 03:00:54;;;;;;;40.67;22.65;;;;;;;13.97;100.00;100606.09;2038735;29;31411;-70
2022/06/09 03:01:56;;;;;;;43.17;23.67;;;;;;;13.98;100.00;100613.22;2037726;29;37895;-70
2022/06/09 03:03:01;;;;;;;49.10;24.85;;;;;;;13.98;100.00;100612.34;2038506;29;44556;-70
2022/06/09 03:04:05;;;;;;;48.40;23.90;;;;;;;13.97;100.00;100619.53;2038317;29;40066;-70
2022/06/09 03:05:07;;;;;;;46.90;23.55;;;;;;;13.99;100.00;100619.47;2038189;29;44484;-69
2022/06/09 03:06:09;;;;;;;50.15;24.77;;;;;;;13.98;100.00;100624.00;2037948;29;40708;-70
2022/06/09 03:07:12;;;;;;;42.17;23.48;;;;;;;13.97;100.00;100615.97;2033553;28;37669;-70
2022/06/09 03:08:13;;;;;;;42.35;23.15;;;;;;;13.97;100.00;100619.53;2029658;29;42544;-70
2022/06/09 03:09:15;;;;;;;45.75;24.38;;;;;;;13.98;100.00;100624.00;2030615;29;23983;-70
2022/06/09 03:10:20;;;;;;;43.55;23.83;;;;;;;13.98;100.00;100629.38;2038140;29;45902;-69
2022/06/09 03:11:22;;;;;;;46.33;23.83;;;;;;;13.99;100.00;100619.47;2037872;29;40744;-70
2022/06/09 03:12:23;;;;;;;47.20;23.33;;;;;;;13.99;100.00;100624.88;2038163;28;36125;-70
2022/06/09 03:13:27;;;;;;;43.95;22.30;;;;;;;13.99;100.00;100625.72;2037837;29;44435;-69
2022/06/09 03:14:29;;;;;;;40.83;19.90;;;;;;;13.99;100.00;100625.72;2038924;29;22226;-69
2022/06/09 03:15:31;;;;;;;42.75;21.20;;;;;;;13.99;100.00;100631.13;2038147;28;39224;-69
2022/06/09 03:16:35;;;;;;;40.13;22.90;;;;;;;13.99;100.00;100631.13;2038258;29;42257;-69
2022/06/09 03:17:37;;;;;;;44.22;24.95;;;;;;;14.00;100.00;100635.56;2037658;29;40982;-69
2022/06/09 03:18:39;;;;;;;39.05;22.38;;;;;;;13.99;100.00;100636.50;2038874;29;24094;-69
2022/06/09 03:19:46;;;;;;;43.60;23.63;;;;;;;14.00;100.00;100634.66;2038311;29;20044;-68
2022/06/09 03:20:49;;;;;;;41.85;23.52;;;;;;;14.00;100.00;100638.25;2037776;28;41205;-71
2022/06/09 03:21:51;;;;;;;45.08;24.38;;;;;;;14.01;100.00;100639.13;2037552;29;37880;-68
2022/06/09 03:22:54;;;;;;;43.42;21.98;;;;;;;14.01;100.00;100639.13;2038750;29;37283;-69
2022/06/09 03:23:57;;;;;;;45.15;25.25;;;;;;;14.01;100.00;100636.44;2037887;29;41234;-69
2022/06/09 03:25:00;;;;;;;49.90;24.45;;;;;;;14.02;100.00;100647.16;2038169;29;39655;-69
2022/06/09 03:26:02;;;;;;;34.85;21.35;;;;;;;14.02;100.00;100638.19;2039172;29;20172;-69
2022/06/09 03:27:04;;;;;;;45.50;24.38;;;;;;;14.02;100.00;100641.75;2038082;29;42019;-69
2022/06/09 03:28:07;;;;;;;43.30;24.20;;;;;;;14.03;100.00;100642.63;2039625;29;39831;-69
2022/06/09 03:29:09;;;;;;;44.03;23.33;;;;;;;14.02;100.00;100639.06;2038128;29;39288;-69
2022/06/09 03:30:12;;;;;;;44.55;23.88;;;;;;;14.03;100.00;100638.16;2037189;28;42417;-70
2022/06/09 03:31:17;;;;;;;44.00;24.52;;;;;;;14.04;100.00;100645.25;2045335;28;38456;-69
2022/06/09 03:32:19;;;;;;;39.70;23.95;;;;;;;14.05;100.00;100632.66;2044499;28;38874;-69
2022/06/09 03:33:21;;;;;;;48.80;24.95;;;;;;;14.05;100.00;100636.25;2037758;29;44753;-69
2022/06/09 03:34:23;;;;;;;45.42;24.98;;;;;;;14.06;100.00;100634.44;2038243;29;40497;-68
2022/06/09 03:35:25;;;;;;;53.90;25.02;;;;;;;14.04;100.00;100642.56;2037969;29;42667;-69
2022/06/09 03:36:27;;;;;;;49.50;26.00;;;;;;;14.06;100.00;100646.06;2038241;29;36314;-69
2022/06/09 03:37:29;;;;;;;46.22;24.35;;;;;;;14.05;100.00;100640.75;2037524;28;45895;-69
2022/06/09 03:38:31;;;;;;;45.10;23.85;;;;;;;14.05;100.00;100644.34;2037852;29;38957;-69
2022/06/09 03:39:33;;;;;;;42.10;23.45;;;;;;;14.05;100.00;100641.66;2037677;29;37974;-70
2022/06/09 03:40:35;;;;;;;42.97;22.02;;;;;;;14.06;100.00;100654.16;2037285;29;42065;-69
2022/06/09 03:41:36;;;;;;;47.08;24.17;;;;;;;14.04;100.00;100644.41;2045183;28;36494;-69
2022/06/09 03:42:38;;;;;;;44.20;22.92;;;;;;;14.03;100.00;100643.53;2045037;28;39893;-69
2022/06/09 03:43:40;;;;;;;43.15;23.75;;;;;;;14.02;100.00;100651.66;2038569;29;40038;-69
2022/06/09 03:44:42;;;;;;;31.73;19.75;;;;;;;14.03;100.00;100648.91;2037884;29;46049;-69
2022/06/09 03:45:43;;;;;;;32.08;19.20;;;;;;;14.02;100.00;100647.16;2037682;29;45978;-69
2022/06/09 03:46:46;;;;;;;34.42;21.10;;;;;;;14.02;100.00;100652.53;2038162;29;38654;-69
2022/06/09 03:47:48;;;;;;;41.78;21.88;;;;;;;14.00;100.00;100649.03;2037681;28;40391;-70
2022/06/09 03:48:53;;;;;;;34.78;21.35;;;;;;;14.03;100.00;100665.06;2030190;29;20040;-70
2022/06/09 03:49:57;;;;;;;38.45;22.17;;;;;;;14.03;100.00;100665.06;2031010;29;20041;-70
2022/06/09 03:51:02;;;;;;;44.30;21.23;;;;;;;14.01;100.00;100656.16;2037785;29;40848;-70
2022/06/09 03:52:04;;;;;;;39.55;21.55;;;;;;;14.04;100.00;100661.41;2037825;29;46055;-69
2022/06/09 03:53:10;;;;;;;40.63;22.02;;;;;;;14.04;100.00;100656.03;2037873;29;39471;-69
2022/06/09 03:54:14;;;;;;;36.47;21.00;;;;;;;14.05;100.00;100662.28;2037550;28;44075;-69
2022/06/09 03:55:16;;;;;;;42.08;22.42;;;;;;;14.06;100.00;100664.03;2037756;29;38211;-69
2022/06/09 03:56:21;;;;;;;41.05;22.58;;;;;;;14.05;100.00;100663.19;2038091;28;40709;-71
2022/06/09 03:57:24;;;;;;;42.63;22.13;;;;;;;14.05;100.00;100657.78;2039077;29;20897;-70
2022/06/09 03:58:25;;;;;;;35.90;20.70;;;;;;;14.06;100.00;100662.22;2038190;28;38873;-71
2022/06/09 03:59:27;;;;;;;38.45;20.08;;;;;;;14.07;100.00;100666.69;2038419;29;46654;-70
2022/06/09 04:00:33;;;;;;;37.17;21.88;;;;;;;14.06;100.00;100664.91;2037276;29;37045;-70
2022/06/09 04:01:35;;;;;;;37.70;19.42;;;;;;;14.07;100.00;100672.06;2038671;29;20040;-70
2022/06/09 04:02:37;;;;;;;41.85;21.42;;;;;;;14.06;100.00;100666.75;2037594;29;42164;-70
2022/06/09 04:03:40;;;;;;;36.25;20.17;;;;;;;14.07;100.00;100665.81;2038736;29;20035;-70
2022/06/09 04:04:42;;;;;;;32.55;19.92;;;;;;;14.08;100.00;100668.41;2037673;29;45159;-70
2022/06/09 04:05:44;;;;;;;36.83;19.60;;;;;;;14.06;100.00;100674.81;2038032;29;34884;-69
2022/06/09 04:06:45;;;;;;;39.38;20.63;;;;;;;14.08;100.00;100679.19;2038063;29;40757;-70
2022/06/09 04:07:48;;;;;;;32.45;18.25;;;;;;;14.09;100.00;100680.94;2037358;29;31457;-70
2022/06/09 04:08:51;;;;;;;36.60;19.55;;;;;;;14.08;100.00;100681.88;2038143;28;20040;-70
2022/06/09 04:09:52;;;;;;;37.58;19.55;;;;;;;14.06;100.00;100680.19;2037672;28;40259;-70
2022/06/09 04:10:56;;;;;;;33.40;19.38;;;;;;;14.06;100.00;100681.06;2038773;29;20045;-70
2022/06/09 04:11:58;;;;;;;29.52;17.20;;;;;;;14.07;100.00;100685.53;2037455;28;39809;-70
2022/06/09 04:13:00;;;;;;;35.33;18.67;;;;;;;14.07;100.00;100690.91;2037717;29;46510;-70
2022/06/09 04:14:02;;;;;;;33.25;18.27;;;;;;;14.06;100.00;100691.84;2037830;29;22408;-70
2022/06/09 04:15:05;;;;;;;32.55;17.25;;;;;;;14.03;100.00;100691.97;2037814;28;20114;-70
2022/06/09 04:16:32;;;;;;;29.50;16.83;;;;;;;14.05;100.00;100694.59;2037602;29;44565;-70
2022/06/09 04:17:34;;;;;;;30.30;16.55;;;;;;;14.08;100.00;100689.94;2037693;29;30158;-70
2022/06/09 04:18:36;;;;;;;32.92;16.88;;;;;;;14.09;100.00;100693.53;2037162;28;42186;-70
2022/06/09 04:19:41;;;;;;;27.52;16.23;;;;;;;14.12;100.00;100688.00;2038005;29;40444;-70
2022/06/09 04:20:43;;;;;;;27.85;16.63;;;;;;;14.11;100.00;100695.22;2037491;29;44206;-70
2022/06/09 04:21:45;;;;;;;26.83;15.65;;;;;;;14.13;100.00;100693.34;2037720;29;44306;-70
2022/06/09 04:22:48;;;;;;;32.05;16.23;;;;;;;14.13;100.00;100692.47;2037288;28;25035;-70
2022/06/09 04:23:50;;;;;;;25.48;15.45;;;;;;;14.17;100.00;100695.91;2038002;28;38221;-70
2022/06/09 04:24:52;;;;;;;27.40;15.90;;;;;;;14.17;100.00;100698.59;2037346;29;43836;-70
2022/06/09 04:25:54;;;;;;;25.42;15.52;;;;;;;14.18;100.00;100698.53;2037729;29;44380;-70
2022/06/09 04:26:58;;;;;;;32.38;14.93;;;;;;;14.21;100.00;100695.72;2037483;29;46109;-70
2022/06/09 04:28:00;;;;;;;28.55;15.00;;;;;;;14.20;100.00;100699.34;2037525;29;42158;-70
2022/06/09 04:29:05;;;;;;;25.92;14.70;;;;;;;14.25;100.00;100699.16;2037422;29;44910;-70
2022/06/09 04:30:08;;;;;;;25.77;14.70;;;;;;;14.29;100.00;100700.78;2039030;28;36600;-70
2022/06/09 04:31:11;;;;;;;26.48;14.60;;;;;;;14.26;100.00;100695.50;2037975;29;37625;-70
2022/06/09 04:32:12;;;;;;;24.67;13.15;;;;;;;14.31;100.00;100701.59;2038448;28;20055;-70
2022/06/09 04:33:14;;;;;;;24.10;13.65;;;;;;;14.33;99.71;100699.69;2038314;29;24227;-70
2022/06/09 04:34:16;;;;;;;25.27;13.20;;;;;;;14.31;99.79;100701.59;2037296;29;40908;-69
2022/06/09 04:35:20;;;;;;;29.35;15.10;;;;;;;14.31;99.65;100697.06;2037841;29;44572;-69
2022/06/09 04:36:22;;;;;;;27.02;14.60;;;;;;;14.33;99.92;100705.09;2037289;29;45746;-70
2022/06/09 04:37:59;;;;;;;29.10;16.13;;;;;;;14.28;100.00;100697.22;2037624;29;38432;-70
2022/06/09 04:38:48;;;;;;;27.10;16.65;;;;;;;14.31;99.96;100706.97;2037931;29;38746;-70
2022/06/09 04:39:49;;;;;;;31.40;16.33;;;;;;;14.31;100.00;100702.44;2037525;28;42768;-70
2022/06/09 04:40:52;;;;;;;30.63;16.60;;;;;;;14.33;100.00;100705.09;2037759;29;39002;-69
2022/06/09 04:41:54;;;;;;;25.73;16.33;;;;;;;14.35;100.00;100705.03;2037624;29;40079;-70
2022/06/09 04:42:56;;;;;;;32.58;17.40;;;;;;;14.33;100.00;100710.47;2037501;29;38475;-70
2022/06/09 04:43:57;;;;;;;31.40;17.33;;;;;;;14.31;100.00;100712.34;2037586;28;44214;-70
2022/06/09 04:44:59;;;;;;;29.30;17.45;;;;;;;14.32;100.00;100714.13;2037469;29;37767;-70
2022/06/09 04:46:04;;;;;;;31.33;16.73;;;;;;;14.33;100.00;100715.84;2037824;29;39258;-70
2022/06/09 04:47:06;;;;;;;35.75;17.25;;;;;;;14.36;100.00;100714.88;2037347;29;41120;-70
2022/06/09 04:48:10;;;;;;;30.40;17.45;;;;;;;14.36;100.00;100718.44;2038604;29;20041;-70
2022/06/09 04:49:12;;;;;;;30.58;17.92;;;;;;;14.37;100.00;100720.16;2037526;28;42955;-70
2022/06/09 04:50:16;;;;;;;27.08;16.70;;;;;;;14.38;100.00;100723.75;2037875;29;37648;-70
2022/06/09 04:51:20;;;;;;;35.13;18.73;;;;;;;14.36;100.00;100721.13;2038411;28;39826;-69
2022/06/09 04:52:22;;;;;;;31.58;17.70;;;;;;;14.38;100.00;100721.94;2038237;29;42354;-70
2022/06/09 04:53:24;;;;;;;30.17;17.45;;;;;;;14.38;100.00;100719.25;2038401;29;32400;-70
2022/06/09 04:54:26;;;;;;;29.23;17.55;;;;;;;14.36;100.00;100722.94;2039435;28;20044;-70
2022/06/09 04:55:28;;;;;;;27.52;16.52;;;;;;;14.36;100.00;100722.94;2039107;29;38265;-70
2022/06/09 04:56:30;;;;;;;28.05;15.57;;;;;;;14.38;100.00;100727.31;2038816;28;37393;-70
2022/06/09 04:57:32;;;;;;;28.52;15.90;;;;;;;14.40;100.00;100725.44;2038573;29;42433;-70